createdAt,value
2017-09-01T00:00:42.188Z,19.89
2017-09-01T00:03:09.706Z,20.00
2017-09-01T00:05:37.347Z,19.95
2017-09-01T00:08:04.914Z,19.91
2017-09-01T00:10:32.668Z,20.01
2017-09-01T00:13:00.188Z,20.09
2017-09-01T00:15:27.972Z,20.14
2017-09-01T00:17:55.515Z,19.99
2017-09-01T00:20:23.303Z,19.79
2017-09-01T00:22:50.856Z,19.75
2017-09-01T00:25:18.378Z,19.79
2017-09-01T00:27:45.922Z,19.75
2017-09-01T00:30:13.592Z,19.72
2017-09-01T00:32:41.127Z,19.64
2017-09-01T00:35:08.683Z,19.62
2017-09-01T00:37:36.261Z,19.76
2017-09-01T00:40:03.826Z,19.73
2017-09-01T00:42:31.374Z,19.61
2017-09-01T00:44:58.941Z,19.49
2017-09-01T00:47:26.460Z,19.49
2017-09-01T00:49:54.000Z,19.43
2017-09-01T00:52:21.589Z,19.58
2017-09-01T00:54:49.921Z,19.43
2017-09-01T00:57:22.494Z,19.42
2017-09-01T00:59:50.055Z,19.34
2017-09-01T01:02:17.930Z,19.27
2017-09-01T01:04:45.444Z,19.26
2017-09-01T01:07:12.962Z,19.30
2017-09-01T01:09:40.525Z,19.24
2017-09-01T01:12:08.050Z,19.07
2017-09-01T01:14:35.574Z,19.17
2017-09-01T01:17:03.195Z,19.11
2017-09-01T01:19:30.857Z,19.16
2017-09-01T01:21:58.437Z,19.09
2017-09-01T01:24:25.980Z,19.11
2017-09-01T01:26:53.546Z,18.98
2017-09-01T01:29:21.074Z,19.05
2017-09-01T01:31:48.614Z,19.03
2017-09-01T01:34:16.188Z,19.02
2017-09-01T01:36:43.791Z,19.08
2017-09-01T01:39:11.365Z,19.03
2017-09-01T01:41:38.895Z,18.88
2017-09-01T01:44:06.418Z,18.84
2017-09-01T01:46:33.996Z,18.75
2017-09-01T01:49:01.554Z,18.74
2017-09-01T01:51:29.097Z,18.80
2017-09-01T01:53:56.711Z,18.82
2017-09-01T01:56:24.721Z,18.79
2017-09-01T01:58:52.510Z,18.78
2017-09-01T02:01:20.112Z,18.80
2017-09-01T02:03:47.624Z,18.73
2017-09-01T02:06:15.181Z,18.68
2017-09-01T02:08:43.077Z,18.69
2017-09-01T02:11:11.644Z,18.56
2017-09-01T02:13:39.181Z,18.54
2017-09-01T02:16:06.732Z,18.40
2017-09-01T02:18:35.116Z,18.58
2017-09-01T02:21:02.696Z,18.45
2017-09-01T02:23:31.099Z,18.42
2017-09-01T02:25:58.873Z,18.48
2017-09-01T02:28:26.437Z,18.50
2017-09-01T02:30:54.278Z,18.39
2017-09-01T02:33:21.827Z,18.37
2017-09-01T02:35:49.370Z,18.31
2017-09-01T02:38:16.989Z,18.62
2017-09-01T02:40:44.541Z,18.59
2017-09-01T02:43:12.076Z,18.43
2017-09-01T02:45:39.662Z,18.49
2017-09-01T02:48:07.550Z,18.44
2017-09-01T02:50:35.941Z,18.12
2017-09-01T02:53:03.585Z,18.10
2017-09-01T02:55:31.393Z,17.70
2017-09-01T02:57:58.984Z,17.95
2017-09-01T03:00:26.586Z,18.07
2017-09-01T03:02:54.129Z,18.13
2017-09-01T03:05:21.688Z,18.24
2017-09-01T03:07:49.627Z,18.38
2017-09-01T03:10:17.218Z,18.22
2017-09-01T03:12:44.768Z,17.96
2017-09-01T03:15:12.389Z,18.06
2017-09-01T03:17:39.967Z,17.93
2017-09-01T03:20:07.521Z,17.99
2017-09-01T03:22:35.115Z,17.99
2017-09-01T03:25:02.729Z,17.95
2017-09-01T03:27:30.617Z,17.82
2017-09-01T03:29:58.195Z,17.87
2017-09-01T03:32:25.801Z,17.88
2017-09-01T03:34:53.342Z,17.97
2017-09-01T03:37:21.171Z,18.11
2017-09-01T03:39:48.740Z,18.14
2017-09-01T03:42:16.277Z,18.03
2017-09-01T03:44:44.132Z,17.81
2017-09-01T03:47:11.698Z,17.81
2017-09-01T03:49:39.218Z,17.90
2017-09-01T03:52:06.755Z,17.70
2017-09-01T03:54:34.324Z,17.44
2017-09-01T03:57:01.833Z,17.76
2017-09-01T03:59:29.718Z,17.75
2017-09-01T04:01:57.320Z,17.86
2017-09-01T04:04:24.903Z,17.78
2017-09-01T04:06:52.425Z,17.71
2017-09-01T04:09:20.013Z,17.67
2017-09-01T04:11:47.595Z,17.81
2017-09-01T04:14:15.151Z,17.70
2017-09-01T04:16:42.781Z,17.74
2017-09-01T04:19:10.312Z,17.82
2017-09-01T04:21:37.834Z,17.85
2017-09-01T04:24:05.435Z,17.95
2017-09-01T04:26:33.079Z,17.97
2017-09-01T04:29:00.668Z,18.25
2017-09-01T04:31:28.320Z,18.28
2017-09-01T04:33:55.876Z,17.99
2017-09-01T04:36:23.678Z,17.96
2017-09-01T04:38:51.311Z,18.29
2017-09-01T04:41:19.095Z,19.14
2017-09-01T04:43:46.887Z,19.04
2017-09-01T04:46:14.496Z,19.33
2017-09-01T04:48:42.313Z,19.67
2017-09-01T04:51:10.107Z,20.18
2017-09-01T04:53:37.779Z,20.50
2017-09-01T04:56:05.413Z,20.91
2017-09-01T04:58:33.818Z,21.08
2017-09-01T05:01:01.844Z,21.69
2017-09-01T05:03:29.689Z,21.41
2017-09-01T05:05:57.296Z,21.95
2017-09-01T05:08:24.920Z,22.30
2017-09-01T05:10:52.549Z,22.35
2017-09-01T05:13:20.180Z,22.59
2017-09-01T05:15:47.840Z,22.57
2017-09-01T05:18:15.453Z,23.04
2017-09-01T05:20:43.067Z,23.41
2017-09-01T05:23:10.685Z,23.28
2017-09-01T05:25:38.301Z,23.08
2017-09-01T05:28:06.718Z,23.68
2017-09-01T05:30:34.333Z,24.13
2017-09-01T05:33:01.914Z,23.94
2017-09-01T05:35:29.853Z,23.91
2017-09-01T05:37:57.670Z,24.41
2017-09-01T05:40:25.273Z,24.61
2017-09-01T05:42:52.830Z,24.37
2017-09-01T05:45:20.506Z,23.45
2017-09-01T05:47:48.038Z,24.15
2017-09-01T05:50:15.605Z,23.74
2017-09-01T05:52:43.225Z,24.23
2017-09-01T05:55:11.125Z,24.46
2017-09-01T05:57:39.101Z,24.76
2017-09-01T06:00:08.115Z,25.07
2017-09-01T06:02:35.705Z,25.60
2017-09-01T06:05:03.275Z,25.92
2017-09-01T06:07:30.884Z,26.17
2017-09-01T06:09:59.176Z,26.27
2017-09-01T06:12:26.763Z,26.23
2017-09-01T06:14:54.377Z,26.80
2017-09-01T06:17:22.172Z,27.03
2017-09-01T06:19:49.814Z,26.95
2017-09-01T06:22:17.439Z,27.29
2017-09-01T06:24:45.014Z,27.44
2017-09-01T06:27:12.681Z,27.56
2017-09-01T06:29:40.382Z,27.36
2017-09-01T06:32:08.191Z,27.25
2017-09-01T06:34:35.840Z,27.42
2017-09-01T06:37:03.632Z,27.88
2017-09-01T06:39:31.435Z,28.16
2017-09-01T06:41:58.968Z,28.41
2017-09-01T06:44:26.751Z,28.62
2017-09-01T06:46:54.336Z,28.96
2017-09-01T06:49:21.899Z,28.33
2017-09-01T06:51:49.636Z,28.57
2017-09-01T06:54:17.242Z,29.14
2017-09-01T06:56:44.771Z,28.82
2017-09-01T06:59:12.524Z,29.10
2017-09-01T07:01:40.131Z,29.12
2017-09-01T07:04:07.688Z,30.05
2017-09-01T07:06:35.232Z,29.14
2017-09-01T07:09:02.811Z,29.59
2017-09-01T07:11:30.769Z,29.80
2017-09-01T07:13:58.520Z,30.32
2017-09-01T07:16:26.069Z,29.50
2017-09-01T07:18:53.584Z,29.15
2017-09-01T07:21:21.119Z,29.18
2017-09-01T07:23:48.715Z,29.72
2017-09-01T07:26:18.476Z,30.05
2017-09-01T07:28:46.139Z,30.02
2017-09-01T07:31:14.056Z,29.99
2017-09-01T07:33:41.596Z,29.93
2017-09-01T07:36:09.177Z,30.60
2017-09-01T07:38:36.763Z,30.66
2017-09-01T07:41:04.382Z,30.84
2017-09-01T07:43:32.048Z,31.16
2017-09-01T07:45:59.624Z,30.76
2017-09-01T07:48:27.167Z,30.76
2017-09-01T07:50:54.694Z,31.02
2017-09-01T07:53:22.294Z,31.50
2017-09-01T07:55:49.839Z,31.71
2017-09-01T07:58:17.392Z,31.35
2017-09-01T08:00:45.280Z,31.12
2017-09-01T08:03:12.793Z,31.29
2017-09-01T08:05:41.292Z,31.18
2017-09-01T08:08:08.907Z,31.65
2017-09-01T08:10:36.514Z,31.97
2017-09-01T08:13:04.161Z,31.35
2017-09-01T08:15:32.892Z,31.59
2017-09-01T08:18:00.677Z,32.08
2017-09-01T08:20:28.311Z,31.81
2017-09-01T08:22:55.932Z,31.96
2017-09-01T08:25:23.479Z,32.29
2017-09-01T08:27:51.067Z,32.23
2017-09-01T08:30:18.652Z,32.09
2017-09-01T08:32:46.993Z,31.91
2017-09-01T08:35:14.576Z,32.38
2017-09-01T08:37:43.088Z,32.57
2017-09-01T08:40:10.901Z,32.82
2017-09-01T08:42:38.487Z,33.03
2017-09-01T08:45:06.158Z,32.39
2017-09-01T08:47:33.746Z,32.93
2017-09-01T08:50:01.339Z,33.03
2017-09-01T08:52:28.953Z,33.23
2017-09-01T08:54:56.517Z,33.06
2017-09-01T08:57:24.180Z,32.82
2017-09-01T08:59:51.727Z,32.89
2017-09-01T09:02:19.317Z,33.29
2017-09-01T09:04:47.158Z,33.36
2017-09-01T09:07:15.003Z,32.94
2017-09-01T09:09:42.643Z,32.15
2017-09-01T09:12:10.344Z,32.52
2017-09-01T09:14:38.106Z,33.11
2017-09-01T09:17:06.031Z,32.44
2017-09-01T09:19:34.532Z,33.50
2017-09-01T09:22:02.399Z,33.85
2017-09-01T09:24:30.021Z,34.14
2017-09-01T09:26:57.562Z,34.17
2017-09-01T09:29:25.768Z,34.42
2017-09-01T09:31:53.373Z,34.27
2017-09-01T09:34:21.220Z,34.58
2017-09-01T09:36:49.230Z,35.08
2017-09-01T09:39:16.860Z,34.66
2017-09-01T09:41:44.492Z,33.96
2017-09-01T09:44:12.021Z,33.76
2017-09-01T09:46:39.834Z,33.72
2017-09-01T09:49:07.401Z,33.22
2017-09-01T09:51:34.917Z,33.98
2017-09-01T09:54:03.547Z,34.18
2017-09-01T09:56:31.349Z,34.26
2017-09-01T09:58:58.871Z,34.31
2017-09-01T10:01:27.376Z,34.61
2017-09-01T10:03:55.238Z,34.08
2017-09-01T10:06:22.927Z,34.49
2017-09-01T10:08:50.568Z,34.82
2017-09-01T10:11:18.815Z,34.66
2017-09-01T10:13:46.436Z,34.81
2017-09-01T10:16:14.052Z,34.93
2017-09-01T10:18:41.656Z,35.10
2017-09-01T10:21:09.260Z,35.15
2017-09-01T10:23:36.846Z,35.25
2017-09-01T10:26:04.435Z,35.15
2017-09-01T10:28:32.226Z,34.80
2017-09-01T10:31:00.939Z,34.67
2017-09-01T10:33:29.304Z,34.98
2017-09-01T10:35:58.347Z,34.90
2017-09-01T10:38:25.984Z,34.54
2017-09-01T10:40:53.677Z,34.75
2017-09-01T10:43:21.967Z,35.03
2017-09-01T10:45:52.031Z,34.98
2017-09-01T10:48:31.907Z,35.23
2017-09-01T10:51:11.615Z,34.99
2017-09-01T10:53:50.871Z,34.49
2017-09-01T10:56:30.995Z,34.88
2017-09-01T10:58:58.579Z,35.11
2017-09-01T11:01:26.153Z,35.06
2017-09-01T11:03:53.940Z,35.05
2017-09-01T11:06:21.731Z,35.08
2017-09-01T11:08:49.347Z,34.72
2017-09-01T11:11:16.904Z,34.68
2017-09-01T11:13:44.605Z,34.61
2017-09-01T11:16:12.193Z,34.67
2017-09-01T11:18:45.245Z,34.45
2017-09-01T11:21:18.405Z,34.63
2017-09-01T11:23:51.503Z,34.80
2017-09-01T11:26:19.081Z,34.63
2017-09-01T11:28:46.619Z,34.63
2017-09-01T11:31:15.007Z,34.94
2017-09-01T11:33:42.755Z,34.85
2017-09-01T11:36:10.514Z,34.65
2017-09-01T11:38:38.241Z,34.88
2017-09-01T11:41:05.836Z,34.83
2017-09-01T11:43:33.411Z,34.63
2017-09-01T11:46:00.969Z,34.41
2017-09-01T11:48:28.500Z,34.54
2017-09-01T11:50:56.021Z,34.73
2017-09-01T11:53:24.359Z,34.37
2017-09-01T11:55:51.888Z,34.46
2017-09-01T11:58:19.410Z,34.28
2017-09-01T12:00:47.317Z,34.04
2017-09-01T12:03:14.931Z,33.83
2017-09-01T12:05:44.223Z,33.84
2017-09-01T12:08:11.793Z,33.82
2017-09-01T12:10:39.314Z,33.92
2017-09-01T12:13:06.846Z,33.90
2017-09-01T12:15:34.437Z,33.78
2017-09-01T12:18:01.951Z,33.93
2017-09-01T12:20:29.493Z,33.79
2017-09-01T12:22:57.068Z,33.87
2017-09-01T12:25:25.851Z,33.98
2017-09-01T12:27:53.586Z,34.08
2017-09-01T12:30:21.185Z,34.21
2017-09-01T12:32:48.708Z,34.28
2017-09-01T12:35:16.251Z,34.23
2017-09-01T12:37:44.645Z,33.79
2017-09-01T12:40:12.173Z,33.93
2017-09-01T12:42:39.703Z,33.95
2017-09-01T12:45:07.257Z,33.94
2017-09-01T12:47:34.803Z,34.01
2017-09-01T12:50:02.473Z,33.93
2017-09-01T12:52:35.853Z,33.89
2017-09-01T12:55:03.468Z,33.28
2017-09-01T12:57:30.992Z,33.16
2017-09-01T12:59:58.541Z,33.22
2017-09-01T13:02:26.119Z,33.18
2017-09-01T13:04:54.143Z,33.56
2017-09-01T13:07:21.662Z,33.66
2017-09-01T13:09:50.155Z,33.85
2017-09-01T13:12:18.274Z,33.88
2017-09-01T13:14:45.793Z,34.12
2017-09-01T13:17:13.324Z,33.93
2017-09-01T13:19:40.853Z,33.60
2017-09-01T13:22:08.374Z,33.71
2017-09-01T13:24:35.932Z,33.77
2017-09-01T13:27:03.460Z,33.97
2017-09-01T13:29:32.026Z,34.06
2017-09-01T13:31:59.646Z,33.93
2017-09-01T13:34:27.160Z,34.01
2017-09-01T13:36:55.696Z,33.99
2017-09-01T13:39:23.290Z,33.94
2017-09-01T13:41:50.811Z,33.72
2017-09-01T13:44:18.338Z,33.61
2017-09-01T13:46:45.933Z,33.48
2017-09-01T13:49:13.457Z,33.61
2017-09-01T13:51:41.528Z,33.46
2017-09-01T13:54:09.081Z,33.47
2017-09-01T13:56:36.745Z,33.36
2017-09-01T13:59:04.297Z,33.32
2017-09-01T14:01:31.901Z,33.23
2017-09-01T14:03:59.509Z,33.04
2017-09-01T14:06:27.355Z,33.08
2017-09-01T14:08:55.032Z,33.03
2017-09-01T14:11:22.592Z,33.03
2017-09-01T14:13:50.168Z,32.87
2017-09-01T14:16:17.765Z,32.78
2017-09-01T14:18:45.326Z,32.82
2017-09-01T14:21:12.849Z,32.80
2017-09-01T14:23:42.420Z,32.76
2017-09-01T14:26:10.196Z,32.72
2017-09-01T14:28:38.436Z,32.63
2017-09-01T14:31:06.053Z,32.72
2017-09-01T14:33:33.611Z,32.68
2017-09-01T14:36:01.176Z,32.70
2017-09-01T14:38:28.734Z,32.40
2017-09-01T14:40:56.334Z,32.47
2017-09-01T14:43:23.860Z,32.43
2017-09-01T14:45:51.547Z,32.42
2017-09-01T14:48:19.134Z,32.26
2017-09-01T14:50:46.707Z,32.25
2017-09-01T14:53:14.297Z,32.14
2017-09-01T14:55:41.990Z,32.15
2017-09-01T14:58:09.681Z,32.17
2017-09-01T15:00:37.245Z,32.21
2017-09-01T15:03:07.769Z,32.17
2017-09-01T15:05:35.412Z,32.10
2017-09-01T15:08:03.068Z,32.12
2017-09-01T15:10:31.516Z,32.05
2017-09-01T15:12:59.289Z,32.13
2017-09-01T15:15:26.881Z,32.02
2017-09-01T15:17:54.492Z,32.02
2017-09-01T15:20:22.245Z,31.86
2017-09-01T15:22:49.893Z,31.89
2017-09-01T15:25:17.500Z,31.86
2017-09-01T15:27:45.304Z,31.78
2017-09-01T15:30:12.911Z,31.56
2017-09-01T15:32:40.531Z,31.58
2017-09-01T15:35:08.475Z,31.48
2017-09-01T15:37:36.059Z,31.41
2017-09-01T15:40:03.844Z,31.44
2017-09-01T15:42:31.620Z,31.37
2017-09-01T15:44:59.218Z,31.36
2017-09-01T15:47:26.836Z,31.34
2017-09-01T15:49:54.675Z,31.16
2017-09-01T15:52:22.329Z,31.28
2017-09-01T15:54:49.879Z,31.28
2017-09-01T15:57:17.455Z,31.22
2017-09-01T15:59:45.043Z,31.16
2017-09-01T16:02:12.621Z,31.16
2017-09-01T16:04:40.173Z,31.12
2017-09-01T16:07:07.836Z,31.11
2017-09-01T16:09:35.642Z,31.06
2017-09-01T16:12:03.262Z,31.01
2017-09-01T16:14:30.870Z,30.96
2017-09-01T16:16:59.151Z,30.96
2017-09-01T16:19:26.841Z,30.82
2017-09-01T16:21:54.385Z,30.74
2017-09-01T16:24:21.986Z,30.64
2017-09-01T16:26:49.574Z,30.63
2017-09-01T16:29:17.122Z,30.64
2017-09-01T16:31:44.887Z,30.56
2017-09-01T16:34:12.569Z,30.49
2017-09-01T16:36:40.643Z,30.53
2017-09-01T16:39:08.481Z,30.43
2017-09-01T16:41:36.112Z,30.39
2017-09-01T16:44:03.687Z,30.33
2017-09-01T16:46:31.256Z,30.25
2017-09-01T16:48:58.823Z,30.24
2017-09-01T16:51:26.354Z,30.13
2017-09-01T16:53:53.992Z,30.11
2017-09-01T16:56:22.420Z,29.84
2017-09-01T16:58:50.302Z,30.00
2017-09-01T17:01:17.858Z,29.91
2017-09-01T17:03:45.443Z,29.82
2017-09-01T17:06:13.006Z,29.77
2017-09-01T17:08:40.589Z,29.70
2017-09-01T17:11:08.173Z,29.58
2017-09-01T17:13:40.264Z,29.56
2017-09-01T17:16:11.243Z,29.45
2017-09-01T17:18:39.495Z,29.40
2017-09-01T17:21:07.493Z,29.36
2017-09-01T17:23:35.142Z,29.31
2017-09-01T17:26:02.904Z,29.28
2017-09-01T17:28:32.011Z,29.24
2017-09-01T17:30:59.647Z,29.19
2017-09-01T17:33:27.197Z,29.16
2017-09-01T17:35:54.757Z,29.09
2017-09-01T17:38:22.321Z,29.00
2017-09-01T17:40:49.884Z,28.96
2017-09-01T17:43:17.476Z,28.81
2017-09-01T17:45:45.062Z,28.81
2017-09-01T17:48:12.613Z,28.81
2017-09-01T17:50:40.170Z,28.73
2017-09-01T17:53:07.807Z,28.70
2017-09-01T17:55:35.467Z,28.71
2017-09-01T17:58:03.042Z,28.70
2017-09-01T18:00:30.619Z,28.61
2017-09-01T18:02:58.217Z,28.50
2017-09-01T18:05:25.761Z,28.36
2017-09-01T18:07:53.571Z,28.35
2017-09-01T18:10:21.142Z,28.18
2017-09-01T18:12:48.945Z,28.20
2017-09-01T18:15:16.494Z,28.22
2017-09-01T18:17:44.030Z,28.25
2017-09-01T18:20:11.608Z,28.16
2017-09-01T18:22:39.196Z,28.14
2017-09-01T18:25:06.749Z,28.12
2017-09-01T18:27:34.319Z,28.06
2017-09-01T18:30:01.909Z,27.95
2017-09-01T18:32:29.501Z,27.87
2017-09-01T18:34:57.114Z,27.82
2017-09-01T18:37:24.643Z,27.68
2017-09-01T18:39:52.260Z,27.49
2017-09-01T18:42:20.054Z,27.53
2017-09-01T18:44:47.615Z,27.61
2017-09-01T18:47:15.297Z,27.74
2017-09-01T18:49:44.447Z,27.66
2017-09-01T18:52:12.318Z,27.51
2017-09-01T18:54:39.942Z,27.62
2017-09-01T18:57:07.555Z,27.59
2017-09-01T18:59:35.164Z,27.41
2017-09-01T19:02:02.895Z,27.25
2017-09-01T19:04:31.025Z,27.23
2017-09-01T19:06:58.629Z,27.21
2017-09-01T19:09:26.282Z,27.20
2017-09-01T19:11:54.546Z,27.12
2017-09-01T19:14:22.952Z,27.20
2017-09-01T19:16:50.622Z,27.09
2017-09-01T19:19:19.857Z,27.07
2017-09-01T19:21:49.965Z,26.95
2017-09-01T19:24:23.148Z,26.74
2017-09-01T19:26:53.849Z,26.54
2017-09-01T19:29:22.282Z,26.34
2017-09-01T19:31:49.864Z,26.28
2017-09-01T19:34:17.410Z,26.28
2017-09-01T19:36:46.105Z,26.06
2017-09-01T19:39:13.688Z,26.01
2017-09-01T19:41:42.542Z,25.95
2017-09-01T19:44:10.743Z,25.63
2017-09-01T19:46:38.338Z,25.53
2017-09-01T19:49:05.881Z,25.37
2017-09-01T19:51:33.481Z,25.22
2017-09-01T19:54:01.215Z,25.15
2017-09-01T19:56:28.738Z,25.05
2017-09-01T19:58:56.522Z,24.95
2017-09-01T20:01:24.107Z,24.90
2017-09-01T20:03:51.629Z,24.86
2017-09-01T20:06:19.682Z,24.79
2017-09-01T20:08:47.262Z,24.62
2017-09-01T20:11:14.800Z,24.63
2017-09-01T20:13:42.389Z,24.55
2017-09-01T20:16:09.979Z,24.59
2017-09-01T20:18:37.546Z,24.58
2017-09-01T20:21:05.080Z,24.53
2017-09-01T20:23:32.670Z,24.46
2017-09-01T20:26:00.259Z,24.45
2017-09-01T20:28:28.044Z,24.44
2017-09-01T20:30:55.612Z,24.30
2017-09-01T20:33:23.357Z,24.25
2017-09-01T20:35:50.897Z,24.30
2017-09-01T20:38:18.476Z,24.36
2017-09-01T20:40:46.022Z,24.39
2017-09-01T20:43:13.577Z,24.35
2017-09-01T20:45:41.186Z,24.26
2017-09-01T20:48:08.697Z,24.28
2017-09-01T20:50:36.266Z,24.27
2017-09-01T20:53:04.050Z,24.29
2017-09-01T20:55:31.587Z,24.17
2017-09-01T20:58:00.223Z,24.06
2017-09-01T21:00:28.018Z,24.09
2017-09-01T21:02:55.526Z,24.04
2017-09-01T21:05:23.962Z,24.05
2017-09-01T21:07:51.522Z,24.03
2017-09-01T21:10:26.285Z,23.92
2017-09-01T21:13:04.729Z,23.83
2017-09-01T21:15:33.625Z,23.88
2017-09-01T21:18:01.495Z,23.72
2017-09-01T21:20:30.023Z,23.67
2017-09-01T21:22:58.891Z,23.65
2017-09-01T21:25:30.125Z,23.57
2017-09-01T21:28:00.750Z,23.57
2017-09-01T21:30:32.630Z,23.66
2017-09-01T21:33:02.094Z,23.65
2017-09-01T21:35:30.534Z,23.70
2017-09-01T21:38:03.335Z,23.65
2017-09-01T21:40:39.409Z,23.65
2017-09-01T21:43:11.361Z,23.63
2017-09-01T21:45:39.760Z,23.55
2017-09-01T21:48:07.360Z,23.48
2017-09-01T21:50:35.016Z,23.15
2017-09-01T21:53:02.597Z,23.46
2017-09-01T21:55:32.644Z,23.41
2017-09-01T21:58:00.486Z,23.28
2017-09-01T22:00:49.490Z,23.45
2017-09-01T22:03:17.074Z,23.64
2017-09-01T22:05:44.661Z,23.61
2017-09-01T22:08:12.180Z,23.65
2017-09-01T22:10:39.713Z,23.69
2017-09-01T22:13:07.535Z,23.76
2017-09-01T22:15:35.080Z,23.76
2017-09-01T22:18:02.663Z,23.77
2017-09-01T22:20:30.277Z,23.68
2017-09-01T22:22:57.929Z,23.80
2017-09-01T22:25:25.486Z,23.78
2017-09-01T22:27:53.076Z,23.81
2017-09-01T22:30:20.779Z,23.67
2017-09-01T22:32:48.371Z,23.88
2017-09-01T22:35:15.996Z,23.83
2017-09-01T22:37:43.560Z,23.81
2017-09-01T22:40:11.559Z,23.87
2017-09-01T22:42:39.088Z,23.74
2017-09-01T22:45:06.690Z,23.83
2017-09-01T22:47:34.352Z,23.92
2017-09-01T22:50:01.918Z,24.00
2017-09-01T22:52:29.580Z,23.98
2017-09-01T22:54:57.344Z,23.95
2017-09-01T22:57:24.892Z,23.87
2017-09-01T22:59:52.517Z,23.96
2017-09-01T23:02:20.135Z,23.95
2017-09-01T23:04:47.702Z,23.74
2017-09-01T23:07:15.232Z,23.60
2017-09-01T23:09:42.803Z,23.55
2017-09-01T23:12:10.364Z,23.56
2017-09-01T23:14:37.901Z,23.45
2017-09-01T23:17:05.472Z,23.42
2017-09-01T23:19:33.072Z,23.38
2017-09-01T23:22:00.998Z,23.40
2017-09-01T23:24:28.622Z,23.46
2017-09-01T23:26:56.420Z,23.32
2017-09-01T23:29:24.316Z,23.20
2017-09-01T23:31:51.912Z,23.19
2017-09-01T23:34:19.740Z,23.32
2017-09-01T23:36:47.365Z,23.27
2017-09-01T23:39:14.943Z,23.34
2017-09-01T23:41:42.821Z,23.28
2017-09-01T23:44:10.376Z,23.24
2017-09-01T23:46:38.028Z,23.26
2017-09-01T23:49:05.740Z,23.31
2017-09-01T23:51:33.303Z,23.31
2017-09-01T23:54:00.875Z,23.25
2017-09-01T23:56:28.671Z,23.10
2017-09-01T23:58:56.226Z,22.96
